createdAt,value
2022-09-13T00:01:17.035Z,4.50
2022-09-13T00:03:45.093Z,4.10
2022-09-13T00:06:14.824Z,4.50
2022-09-13T00:08:43.336Z,4.68
2022-09-13T00:11:17.395Z,4.77
2022-09-13T00:13:45.738Z,6.25
2022-09-13T00:16:14.663Z,4.37
2022-09-13T00:18:46.715Z,2.90
2022-09-13T00:21:17.225Z,2.70
2022-09-13T00:23:46.094Z,3.63
2022-09-13T00:26:15.848Z,3.17
2022-09-13T00:28:45.344Z,3.30
2022-09-13T00:31:14.068Z,4.20
2022-09-13T00:33:41.866Z,3.00
2022-09-13T00:36:15.244Z,3.20
2022-09-13T00:38:43.965Z,4.30
2022-09-13T00:41:17.179Z,3.78
2022-09-13T00:43:48.140Z,4.20
2022-09-13T00:46:24.925Z,4.03
2022-09-13T00:48:56.417Z,5.03
2022-09-13T00:51:26.460Z,4.40
2022-09-13T00:53:59.528Z,4.07
2022-09-13T00:56:33.018Z,3.57
2022-09-13T00:59:03.493Z,3.15
2022-09-13T01:01:38.007Z,3.92
2022-09-13T01:04:08.667Z,2.97
2022-09-13T01:06:42.769Z,3.08
2022-09-13T01:09:13.099Z,3.70
2022-09-13T01:11:47.158Z,3.55
2022-09-13T01:14:15.511Z,4.10
2022-09-13T01:16:47.644Z,4.60
2022-09-13T01:19:15.962Z,4.43
2022-09-13T01:22:13.515Z,5.07
2022-09-13T01:25:09.821Z,5.00
2022-09-13T01:27:46.708Z,4.00
2022-09-13T01:30:19.101Z,4.13
2022-09-13T01:33:13.283Z,4.95
2022-09-13T01:35:56.024Z,3.90
2022-09-13T01:38:41.448Z,3.40
2022-09-13T01:41:25.885Z,5.30
2022-09-13T01:44:00.253Z,3.73
2022-09-13T01:46:33.152Z,6.13
2022-09-13T01:49:08.470Z,4.85
2022-09-13T01:51:44.334Z,4.88
2022-09-13T01:54:18.135Z,3.92
2022-09-13T01:56:55.536Z,3.63
2022-09-13T01:59:27.769Z,3.80
2022-09-13T02:02:03.712Z,4.10
2022-09-13T02:04:38.308Z,2.60
2022-09-13T02:07:12.416Z,3.67
2022-09-13T02:09:44.560Z,3.65
2022-09-13T02:12:16.844Z,3.53
2022-09-13T02:14:47.451Z,3.50
2022-09-13T02:17:21.612Z,3.92
2022-09-13T02:19:53.918Z,3.25
2022-09-13T02:22:27.223Z,4.22
2022-09-13T02:24:58.414Z,3.05
2022-09-13T02:27:33.125Z,3.38
2022-09-13T02:30:05.470Z,2.92
2022-09-13T02:32:38.202Z,3.00
2022-09-13T02:35:13.442Z,2.72
2022-09-13T02:37:43.514Z,3.22
2022-09-13T02:40:22.748Z,2.78
2022-09-13T02:42:55.856Z,3.42
2022-09-13T02:45:30.781Z,3.20
2022-09-13T02:48:05.534Z,3.47
2022-09-13T02:50:48.431Z,2.73
2022-09-13T02:53:24.031Z,2.90
2022-09-13T02:55:56.272Z,3.50
2022-09-13T02:58:31.978Z,3.22
2022-09-13T03:00:59.811Z,3.07
2022-09-13T03:03:29.143Z,2.50
2022-09-13T03:05:56.975Z,2.25
2022-09-13T03:08:25.546Z,2.58
2022-09-13T03:11:03.788Z,3.83
2022-09-13T03:13:41.642Z,3.70
2022-09-13T03:16:25.810Z,3.27
2022-09-13T03:19:07.979Z,3.13
2022-09-13T03:21:51.534Z,3.28
2022-09-13T03:24:25.240Z,3.05
2022-09-13T03:27:07.873Z,3.33
2022-09-13T03:29:44.516Z,4.63
2022-09-13T03:32:30.319Z,3.13
2022-09-13T03:35:08.203Z,3.90
2022-09-13T03:37:46.474Z,4.15
2022-09-13T03:40:17.557Z,3.30
2022-09-13T03:42:53.210Z,5.93
2022-09-13T03:45:24.929Z,4.93
2022-09-13T03:47:56.014Z,5.57
2022-09-13T03:50:27.466Z,5.68
2022-09-13T03:53:01.327Z,3.90
2022-09-13T03:55:30.107Z,3.30
2022-09-13T03:57:58.008Z,3.53
2022-09-13T04:00:26.167Z,5.38
2022-09-13T04:02:55.466Z,3.78
2022-09-13T04:05:23.224Z,4.20
2022-09-13T04:07:54.466Z,4.60
2022-09-13T04:10:24.202Z,5.43
2022-09-13T04:12:52.512Z,4.45
2022-09-13T04:15:20.349Z,4.18
2022-09-13T04:17:48.215Z,6.10
2022-09-13T04:20:15.981Z,4.03
2022-09-13T04:22:43.716Z,3.97
2022-09-13T04:25:12.845Z,3.45
2022-09-13T04:27:42.884Z,3.37
2022-09-13T04:30:12.657Z,3.55
2022-09-13T04:32:40.362Z,4.03
2022-09-13T04:35:09.274Z,6.70
2022-09-13T04:37:37.415Z,6.97
2022-09-13T04:40:06.386Z,4.60
2022-09-13T04:42:35.590Z,4.22
2022-09-13T04:45:03.820Z,5.57
2022-09-13T04:47:31.921Z,3.27
2022-09-13T04:50:02.064Z,5.28
2022-09-13T04:52:29.836Z,4.73
2022-09-13T04:55:00.559Z,4.53
2022-09-13T04:57:28.506Z,3.53
2022-09-13T04:59:57.697Z,3.10
2022-09-13T05:02:25.508Z,3.67
2022-09-13T05:04:53.319Z,3.65
2022-09-13T05:07:21.108Z,3.57
2022-09-13T05:09:50.996Z,4.85
2022-09-13T05:12:18.747Z,2.30
2022-09-13T05:14:46.635Z,2.67
2022-09-13T05:17:17.808Z,2.50
2022-09-13T05:19:45.602Z,3.50
2022-09-13T05:22:13.396Z,3.72
2022-09-13T05:24:41.511Z,2.40
2022-09-13T05:27:09.635Z,3.00
2022-09-13T05:29:39.764Z,3.20
2022-09-13T05:32:07.573Z,2.85
2022-09-13T05:34:36.962Z,2.85
2022-09-13T05:37:04.811Z,3.08
2022-09-13T05:39:48.441Z,3.15
2022-09-13T05:42:20.344Z,2.60
2022-09-13T05:44:48.139Z,2.60
2022-09-13T05:47:16.806Z,3.60
2022-09-13T05:50:08.753Z,2.60
2022-09-13T05:52:33.675Z,2.60
2022-09-13T05:55:01.382Z,3.30
2022-09-13T05:57:29.290Z,3.00
2022-09-13T05:59:57.023Z,3.53
2022-09-13T06:02:24.994Z,4.43
2022-09-13T06:04:54.198Z,5.00
2022-09-13T06:07:21.956Z,3.53
2022-09-13T06:09:49.839Z,4.70
2022-09-13T06:12:17.553Z,3.88
2022-09-13T06:14:45.297Z,3.50
2022-09-13T06:17:13.060Z,2.70
2022-09-13T06:19:40.832Z,4.23
2022-09-13T06:22:09.953Z,3.42
2022-09-13T06:24:38.314Z,3.90
2022-09-13T06:27:06.316Z,2.40
2022-09-13T06:29:34.068Z,2.93
2022-09-13T06:32:01.802Z,3.10
2022-09-13T06:34:31.444Z,3.10
2022-09-13T06:36:59.385Z,3.00
2022-09-13T06:39:29.086Z,4.88
2022-09-13T06:41:56.850Z,3.13
2022-09-13T06:44:39.954Z,3.67
2022-09-13T06:47:07.958Z,5.25
2022-09-13T06:49:37.840Z,3.65
2022-09-13T06:52:05.668Z,3.92
2022-09-13T06:54:34.857Z,3.35
2022-09-13T06:57:03.305Z,6.15
2022-09-13T06:59:31.060Z,5.75
2022-09-13T07:02:01.446Z,6.95
2022-09-13T07:04:31.535Z,5.32
2022-09-13T07:07:00.863Z,6.55
2022-09-13T07:09:28.838Z,6.97
2022-09-13T07:11:58.028Z,6.03
2022-09-13T07:14:27.780Z,5.60
2022-09-13T07:16:56.036Z,4.67
2022-09-13T07:19:26.441Z,4.65
2022-09-13T07:21:55.243Z,5.00
2022-09-13T07:24:23.958Z,5.43
2022-09-13T07:26:51.810Z,4.15
2022-09-13T07:29:24.214Z,5.57
2022-09-13T07:31:54.182Z,5.03
2022-09-13T07:34:23.306Z,5.47
2022-09-13T07:36:52.454Z,6.43
2022-09-13T07:39:23.076Z,3.65
2022-09-13T07:41:51.439Z,4.83
2022-09-13T07:44:19.203Z,5.30
2022-09-13T07:46:48.340Z,4.53
2022-09-13T07:49:19.052Z,3.70
2022-09-13T07:51:51.024Z,4.97
2022-09-13T07:54:20.123Z,8.57
2022-09-13T07:56:50.191Z,4.97
2022-09-13T07:59:19.465Z,7.10
2022-09-13T08:01:50.210Z,5.47
2022-09-13T08:04:19.770Z,3.75
2022-09-13T08:06:48.183Z,6.40
2022-09-13T08:09:16.997Z,4.68
2022-09-13T08:11:46.585Z,4.40
2022-09-13T08:14:16.166Z,4.97
2022-09-13T08:16:44.240Z,7.27
2022-09-13T08:19:15.194Z,4.40
2022-09-13T08:21:43.835Z,4.47
2022-09-13T08:24:15.834Z,5.10
2022-09-13T08:26:43.762Z,5.18
2022-09-13T08:29:13.382Z,5.63
2022-09-13T08:31:41.586Z,4.10
2022-09-13T08:34:14.487Z,4.88
2022-09-13T08:36:42.659Z,5.15
2022-09-13T08:39:12.686Z,4.40
2022-09-13T08:42:17.101Z,3.10
2022-09-13T08:44:48.799Z,5.82
2022-09-13T08:47:31.744Z,5.60
2022-09-13T08:50:08.224Z,4.57
2022-09-13T08:52:45.500Z,3.70
2022-09-13T08:55:25.017Z,7.43
2022-09-13T08:58:03.438Z,3.35
2022-09-13T09:00:36.291Z,2.88
2022-09-13T09:03:17.891Z,5.13
2022-09-13T09:05:49.122Z,4.65
2022-09-13T09:08:31.139Z,3.28
2022-09-13T09:11:02.966Z,5.47
2022-09-13T09:13:33.830Z,4.75
2022-09-13T09:16:07.047Z,5.60
2022-09-13T09:18:40.938Z,5.70
2022-09-13T09:21:16.375Z,3.97
2022-09-13T09:23:52.435Z,2.50
2022-09-13T09:26:22.821Z,3.58
2022-09-13T09:28:52.167Z,3.30
2022-09-13T09:31:32.270Z,1.80
2022-09-13T09:34:15.476Z,3.57
2022-09-13T09:36:50.050Z,3.42
2022-09-13T09:39:17.879Z,2.75
2022-09-13T09:41:46.305Z,3.85
2022-09-13T09:44:22.541Z,2.80
2022-09-13T09:46:55.856Z,4.13
2022-09-13T09:49:50.646Z,3.60
2022-09-13T09:52:28.108Z,3.95
2022-09-13T09:55:01.208Z,4.57
2022-09-13T09:57:50.966Z,3.00
2022-09-13T10:00:20.132Z,2.60
2022-09-13T10:02:50.161Z,3.27
2022-09-13T10:05:20.792Z,1.75
2022-09-13T10:07:57.601Z,1.20
2022-09-13T10:10:36.694Z,4.15
2022-09-13T10:13:05.866Z,1.50
2022-09-13T10:15:35.462Z,2.63
2022-09-13T10:18:39.961Z,2.28
2022-09-13T10:21:11.165Z,1.93
2022-09-13T10:23:42.049Z,2.60
2022-09-13T10:26:13.290Z,4.40
2022-09-13T10:28:48.132Z,2.70
2022-09-13T10:31:18.509Z,2.58
2022-09-13T10:33:57.337Z,2.80
2022-09-13T10:36:51.160Z,2.80
2022-09-13T10:39:22.546Z,3.70
2022-09-13T10:41:53.917Z,2.92
2022-09-13T10:44:31.255Z,1.55
2022-09-13T10:47:02.948Z,2.27
2022-09-13T10:49:39.047Z,2.35
2022-09-13T10:52:25.662Z,1.30
2022-09-13T10:54:55.217Z,1.17
2022-09-13T10:57:34.497Z,2.08
2022-09-13T11:00:03.004Z,2.30
2022-09-13T11:02:50.497Z,1.38
2022-09-13T11:05:23.450Z,1.10
2022-09-13T11:08:27.042Z,1.02
2022-09-13T11:11:08.778Z,1.05
2022-09-13T11:13:48.181Z,1.07
2022-09-13T11:16:33.881Z,1.42
2022-09-13T11:19:22.280Z,1.77
2022-09-13T11:22:05.399Z,1.60
2022-09-13T11:24:51.997Z,2.10
2022-09-13T11:27:30.334Z,1.43
2022-09-13T11:30:14.010Z,1.30
2022-09-13T11:33:06.300Z,1.25
2022-09-13T11:35:57.599Z,1.67
2022-09-13T11:38:42.572Z,2.90
2022-09-13T11:41:21.425Z,1.50
2022-09-13T11:44:03.984Z,0.80
2022-09-13T11:46:41.089Z,2.63
2022-09-13T11:49:28.812Z,2.07
2022-09-13T11:52:09.713Z,4.40
2022-09-13T11:55:00.324Z,2.50
2022-09-13T11:57:32.526Z,2.00
2022-09-13T12:00:05.743Z,1.03
2022-09-13T12:02:41.473Z,1.80
2022-09-13T12:05:22.534Z,1.00
2022-09-13T12:07:54.955Z,2.07
2022-09-13T12:10:26.877Z,2.50
2022-09-13T12:12:57.251Z,1.05
2022-09-13T12:15:36.183Z,1.83
2022-09-13T12:18:11.956Z,1.10
2022-09-13T12:20:47.999Z,1.30
2022-09-13T12:23:24.623Z,1.00
2022-09-13T12:25:56.670Z,1.30
2022-09-13T12:28:30.841Z,3.60
2022-09-13T12:31:05.963Z,2.55
2022-09-13T12:33:40.917Z,1.03
2022-09-13T12:36:37.447Z,2.90
2022-09-13T12:39:23.974Z,1.10
2022-09-13T12:42:07.322Z,1.20
2022-09-13T12:44:45.566Z,1.33
2022-09-13T12:47:49.777Z,1.90
2022-09-13T12:50:46.752Z,1.98
2022-09-13T12:53:33.269Z,0.97
2022-09-13T12:56:50.858Z,1.60
2022-09-13T12:59:44.751Z,1.20
2022-09-13T13:02:31.933Z,2.30
2022-09-13T13:05:02.296Z,1.73
2022-09-13T13:07:35.028Z,1.17
2022-09-13T13:10:03.423Z,1.40
2022-09-13T13:12:34.375Z,1.45
2022-09-13T13:15:04.447Z,1.27
2022-09-13T13:17:47.473Z,1.85
2022-09-13T13:20:41.803Z,1.70
2022-09-13T13:23:24.403Z,1.65
2022-09-13T13:26:08.659Z,2.22
2022-09-13T13:29:07.984Z,1.52
2022-09-13T13:31:38.639Z,1.27
2022-09-13T13:34:41.376Z,2.05
2022-09-13T13:37:29.201Z,1.35
2022-09-13T13:40:29.014Z,1.05
2022-09-13T13:43:30.666Z,1.40
2022-09-13T13:46:26.894Z,1.73
2022-09-13T13:48:55.135Z,2.47
2022-09-13T13:51:28.378Z,0.88
2022-09-13T13:54:03.631Z,2.25
2022-09-13T13:56:49.183Z,1.60
2022-09-13T13:59:27.946Z,1.73
2022-09-13T14:02:01.632Z,2.00
2022-09-13T14:04:48.674Z,2.35
2022-09-13T14:07:30.398Z,1.73
2022-09-13T14:10:04.380Z,1.75
2022-09-13T14:12:49.694Z,1.27
2022-09-13T14:15:36.421Z,2.70
2022-09-13T14:18:34.166Z,3.72
2022-09-13T14:21:03.249Z,1.50
2022-09-13T14:23:32.184Z,1.63
2022-09-13T14:26:01.842Z,1.55
2022-09-13T14:28:33.268Z,1.90
2022-09-13T14:31:01.198Z,1.10
2022-09-13T14:33:35.113Z,1.67
2022-09-13T14:36:06.321Z,1.55
2022-09-13T14:38:35.413Z,1.33
2022-09-13T14:41:13.562Z,1.85
2022-09-13T14:43:43.701Z,2.47
2022-09-13T14:46:15.303Z,2.30
2022-09-13T14:48:51.475Z,3.33
2022-09-13T14:51:25.340Z,1.25
2022-09-13T14:54:01.268Z,1.98
2022-09-13T14:56:41.351Z,3.20
2022-09-13T14:59:16.847Z,2.00
2022-09-13T15:01:46.779Z,1.48
2022-09-13T15:04:18.491Z,2.33
2022-09-13T15:06:46.640Z,2.90
2022-09-13T15:09:27.135Z,1.13
2022-09-13T15:12:01.065Z,2.28
2022-09-13T15:14:32.202Z,1.08
2022-09-13T15:17:02.877Z,1.27
2022-09-13T15:19:39.991Z,0.50
2022-09-13T15:22:16.690Z,1.47
2022-09-13T15:24:47.822Z,2.35
2022-09-13T15:27:26.046Z,1.40
2022-09-13T15:29:57.424Z,4.35
2022-09-13T15:32:32.301Z,4.03
2022-09-13T15:35:01.483Z,3.00
2022-09-13T15:37:37.394Z,0.73
2022-09-13T15:40:17.232Z,3.22
2022-09-13T15:42:50.018Z,2.57
2022-09-13T15:45:20.834Z,2.00
2022-09-13T15:47:49.948Z,1.63
2022-09-13T15:50:24.796Z,2.70
2022-09-13T15:52:52.694Z,5.50
2022-09-13T15:55:20.933Z,3.13
2022-09-13T15:57:49.276Z,5.18
2022-09-13T16:00:22.453Z,8.32
2022-09-13T16:02:50.347Z,5.93
2022-09-13T16:05:18.651Z,2.50
2022-09-13T16:07:47.066Z,3.22
2022-09-13T16:10:17.557Z,2.95
2022-09-13T16:12:45.694Z,1.77
2022-09-13T16:15:14.395Z,2.83
2022-09-13T16:17:43.583Z,2.47
2022-09-13T16:20:13.935Z,2.25
2022-09-13T16:22:41.761Z,5.05
2022-09-13T16:25:11.272Z,1.80
2022-09-13T16:27:41.927Z,2.90
2022-09-13T16:30:12.437Z,2.03
2022-09-13T16:32:41.225Z,1.42
2022-09-13T16:35:11.551Z,2.20
2022-09-13T16:37:39.941Z,4.03
2022-09-13T16:40:10.007Z,2.80
2022-09-13T16:42:40.192Z,2.35
2022-09-13T16:45:09.042Z,1.80
2022-09-13T16:47:37.672Z,5.10
2022-09-13T16:50:06.737Z,2.00
2022-09-13T16:52:36.545Z,1.83
2022-09-13T16:55:05.188Z,2.70
2022-09-13T16:57:33.183Z,3.83
2022-09-13T17:00:03.320Z,2.37
2022-09-13T17:02:31.372Z,2.60
2022-09-13T17:04:59.311Z,3.38
2022-09-13T17:07:27.393Z,3.90
2022-09-13T17:09:56.797Z,2.38
2022-09-13T17:12:24.695Z,3.92
2022-09-13T17:14:52.929Z,3.60
2022-09-13T17:17:20.721Z,1.65
2022-09-13T17:19:48.619Z,2.22
2022-09-13T17:22:16.805Z,1.75
2022-09-13T17:24:44.963Z,2.97
2022-09-13T17:27:16.252Z,2.40
2022-09-13T17:29:44.056Z,4.30
2022-09-13T17:32:11.849Z,4.05
2022-09-13T17:34:39.657Z,6.63
2022-09-13T17:37:12.576Z,5.30
2022-09-13T17:39:42.155Z,5.63
2022-09-13T17:42:09.931Z,4.78
2022-09-13T17:44:39.582Z,2.45
2022-09-13T17:47:07.701Z,1.80
2022-09-13T17:49:35.528Z,0.80
2022-09-13T17:52:04.049Z,1.10
2022-09-13T17:54:31.848Z,1.30
2022-09-13T17:57:00.226Z,1.30
2022-09-13T17:59:32.134Z,3.97
2022-09-13T18:02:01.582Z,3.22
2022-09-13T18:04:29.412Z,2.72
2022-09-13T18:06:57.260Z,3.25
2022-09-13T18:09:26.373Z,2.90
2022-09-13T18:11:54.212Z,3.80
2022-09-13T18:14:23.848Z,5.00
2022-09-13T18:16:55.783Z,14.18
2022-09-13T18:19:44.803Z,14.80
2022-09-13T18:22:13.433Z,8.23
2022-09-13T18:24:41.198Z,16.30
2022-09-13T18:27:12.361Z,11.73
2022-09-13T18:29:40.163Z,24.83
2022-09-13T18:32:08.263Z,44.67
2022-09-13T18:34:37.455Z,25.10
2022-09-13T18:37:09.849Z,14.60
2022-09-13T18:39:38.244Z,15.93
2022-09-13T18:42:08.534Z,17.67
2022-09-13T18:44:36.315Z,13.98
2022-09-13T18:47:05.223Z,9.10
2022-09-13T18:49:41.785Z,53.00
2022-09-13T18:52:11.000Z,31.15
2022-09-13T18:54:40.822Z,27.83
2022-09-13T18:57:08.616Z,21.52
2022-09-13T18:59:36.412Z,22.90
2022-09-13T19:02:04.230Z,8.20
2022-09-13T19:04:33.525Z,12.95
2022-09-13T19:07:07.090Z,12.23
2022-09-13T19:09:35.933Z,11.13
2022-09-13T19:12:05.507Z,11.75
2022-09-13T19:14:33.495Z,9.70
2022-09-13T19:17:02.952Z,7.00
2022-09-13T19:19:31.910Z,25.73
2022-09-13T19:21:59.730Z,16.95
2022-09-13T19:24:28.999Z,16.55
2022-09-13T19:26:56.752Z,15.70
2022-09-13T19:29:24.899Z,15.40
2022-09-13T19:31:55.711Z,7.32
2022-09-13T19:34:24.051Z,7.32
2022-09-13T19:36:57.553Z,5.13
2022-09-13T19:39:29.599Z,5.00
2022-09-13T19:41:59.724Z,4.20
2022-09-13T19:44:27.704Z,4.97
2022-09-13T19:47:26.914Z,4.35
2022-09-13T19:49:43.293Z,3.35
2022-09-13T19:52:11.096Z,3.30
2022-09-13T19:54:38.861Z,2.55
2022-09-13T19:57:09.816Z,3.78
2022-09-13T19:59:37.650Z,2.58
2022-09-13T20:02:05.991Z,2.17
2022-09-13T20:04:33.883Z,3.90
2022-09-13T20:07:01.650Z,1.67
2022-09-13T20:09:29.624Z,1.70
2022-09-13T20:12:00.411Z,1.40
2022-09-13T20:14:29.723Z,2.55
2022-09-13T20:16:57.982Z,2.80
2022-09-13T20:19:46.194Z,4.10
2022-09-13T20:22:13.748Z,4.60
2022-09-13T20:24:41.518Z,4.15
2022-09-13T20:27:10.078Z,3.63
2022-09-13T20:29:39.897Z,2.03
2022-09-13T20:32:07.947Z,3.45
2022-09-13T20:34:37.727Z,2.97
2022-09-13T20:37:05.635Z,3.05
2022-09-13T20:39:33.383Z,4.50
2022-09-13T20:42:01.139Z,1.23
2022-09-13T20:44:28.956Z,1.73
2022-09-13T20:46:58.410Z,2.28
2022-09-13T20:49:26.222Z,5.30
2022-09-13T20:51:54.011Z,2.45
2022-09-13T20:54:21.979Z,4.20
2022-09-13T20:56:49.727Z,1.30
2022-09-13T20:59:17.468Z,1.60
2022-09-13T21:01:45.495Z,1.80
2022-09-13T21:04:14.661Z,2.33
2022-09-13T21:07:03.612Z,2.40
2022-09-13T21:09:32.419Z,2.80
2022-09-13T21:12:01.199Z,3.67
2022-09-13T21:14:33.915Z,2.25
2022-09-13T21:17:01.860Z,1.77
2022-09-13T21:19:31.272Z,2.15
2022-09-13T21:21:59.128Z,2.45
2022-09-13T21:24:26.889Z,3.53
2022-09-13T21:26:54.632Z,3.80
2022-09-13T21:29:22.689Z,5.37
2022-09-13T21:31:50.410Z,4.10
2022-09-13T21:34:19.639Z,2.30
2022-09-13T21:36:49.196Z,5.28
2022-09-13T21:39:18.530Z,1.80
2022-09-13T21:41:47.565Z,2.42
2022-09-13T21:44:17.804Z,3.28
2022-09-13T21:46:46.650Z,2.33
2022-09-13T21:49:15.809Z,2.47
2022-09-13T21:51:46.511Z,2.78
2022-09-13T21:54:17.358Z,1.27
2022-09-13T21:56:50.313Z,3.80
2022-09-13T21:59:20.059Z,2.13
2022-09-13T22:01:50.419Z,3.38
2022-09-13T22:04:20.692Z,1.33
2022-09-13T22:06:51.617Z,1.63
2022-09-13T22:09:22.971Z,3.45
2022-09-13T22:11:50.888Z,2.83
2022-09-13T22:14:21.872Z,1.50
2022-09-13T22:16:52.470Z,3.07
2022-09-13T22:19:22.126Z,1.30
2022-09-13T22:21:53.573Z,1.58
2022-09-13T22:24:25.079Z,1.60
2022-09-13T22:26:54.236Z,3.00
2022-09-13T22:29:25.087Z,1.35
2022-09-13T22:31:53.228Z,2.83
2022-09-13T22:34:23.046Z,1.60
2022-09-13T22:36:50.803Z,1.77
2022-09-13T22:39:19.049Z,2.45
2022-09-13T22:41:48.162Z,2.95
2022-09-13T22:44:15.894Z,3.40
2022-09-13T22:46:45.155Z,2.40
2022-09-13T22:49:14.006Z,1.35
2022-09-13T22:51:42.243Z,1.43
2022-09-13T22:54:10.048Z,1.53
2022-09-13T22:56:40.735Z,2.63
2022-09-13T22:59:14.996Z,2.85
2022-09-13T23:01:43.882Z,1.45
2022-09-13T23:04:12.410Z,1.30
2022-09-13T23:06:40.862Z,1.60
2022-09-13T23:09:09.588Z,1.40
2022-09-13T23:11:39.449Z,1.77
2022-09-13T23:14:09.794Z,1.40
2022-09-13T23:16:40.773Z,2.53
2022-09-13T23:19:08.921Z,2.25
2022-09-13T23:21:38.686Z,5.35
2022-09-13T23:24:08.711Z,3.30
2022-09-13T23:26:36.591Z,2.28
2022-09-13T23:29:05.715Z,2.90
2022-09-13T23:31:38.459Z,2.20
2022-09-13T23:34:10.411Z,3.30
2022-09-13T23:36:39.913Z,2.67
2022-09-13T23:39:09.503Z,4.47
2022-09-13T23:41:37.397Z,5.90
2022-09-13T23:44:05.805Z,3.28
2022-09-13T23:46:33.637Z,2.42
2022-09-13T23:49:01.465Z,3.77
2022-09-13T23:51:30.988Z,2.20
2022-09-13T23:54:00.892Z,2.67
2022-09-13T23:56:30.797Z,3.80
2022-09-13T23:59:00.047Z,2.03
